sensor_id;sensor_type;location;lat;lon;timestamp;temperature;humidity
37702;DHT22;23548;51.196;6.838;2022-07-22T00:01:57;17.40;99.90
37702;DHT22;23548;51.196;6.838;2022-07-22T00:04:23;17.50;99.90
37702;DHT22;23548;51.196;6.838;2022-07-22T00:06:49;17.50;99.90
37702;DHT22;23548;51.196;6.838;2022-07-22T00:09:15;17.50;99.90
37702;DHT22;23548;51.196;6.838;2022-07-22T00:11:41;17.50;99.90
37702;DHT22;23548;51.196;6.838;2022-07-22T00:14:06;17.50;99.90
37702;DHT22;23548;51.196;6.838;2022-07-22T00:16:32;17.40;99.90
37702;DHT22;23548;51.196;6.838;2022-07-22T00:18:58;17.40;99.90
37702;DHT22;23548;51.196;6.838;2022-07-22T00:21:24;17.30;99.90
37702;DHT22;23548;51.196;6.838;2022-07-22T00:23:50;17.30;99.90
37702;DHT22;23548;51.196;6.838;2022-07-22T00:26:16;17.40;99.90
37702;DHT22;23548;51.196;6.838;2022-07-22T00:28:41;17.40;99.90
37702;DHT22;23548;51.196;6.838;2022-07-22T00:31:07;17.40;99.90
37702;DHT22;23548;51.196;6.838;2022-07-22T00:33:33;17.30;99.90
37702;DHT22;23548;51.196;6.838;2022-07-22T00:35:58;17.20;99.90
37702;DHT22;23548;51.196;6.838;2022-07-22T00:38:24;17.20;99.90
37702;DHT22;23548;51.196;6.838;2022-07-22T00:40:50;17.10;99.90
37702;DHT22;23548;51.196;6.838;2022-07-22T00:43:16;17.10;99.90
37702;DHT22;23548;51.196;6.838;2022-07-22T00:45:41;17.10;99.90
37702;DHT22;23548;51.196;6.838;2022-07-22T00:48:07;17.10;99.90
37702;DHT22;23548;51.196;6.838;2022-07-22T00:50:33;17.10;99.90
37702;DHT22;23548;51.196;6.838;2022-07-22T00:52:59;17.10;99.90
37702;DHT22;23548;51.196;6.838;2022-07-22T00:55:25;17.20;99.90
37702;DHT22;23548;51.196;6.838;2022-07-22T00:57:51;17.20;99.90
37702;DHT22;23548;51.196;6.838;2022-07-22T01:00:20;17.20;99.90
37702;DHT22;23548;51.196;6.838;2022-07-22T01:02:47;17.20;99.90
37702;DHT22;23548;51.196;6.838;2022-07-22T01:05:13;17.10;99.90
37702;DHT22;23548;51.196;6.838;2022-07-22T01:07:39;17.00;99.90
37702;DHT22;23548;51.196;6.838;2022-07-22T01:10:05;17.00;99.90
37702;DHT22;23548;51.196;6.838;2022-07-22T01:12:32;17.00;99.90
37702;DHT22;23548;51.196;6.838;2022-07-22T01:14:58;16.90;99.90
37702;DHT22;23548;51.196;6.838;2022-07-22T01:17:24;17.00;99.90
37702;DHT22;23548;51.196;6.838;2022-07-22T01:19:50;17.00;99.90
37702;DHT22;23548;51.196;6.838;2022-07-22T01:22:16;16.90;99.90
37702;DHT22;23548;51.196;6.838;2022-07-22T01:24:42;16.80;99.90
37702;DHT22;23548;51.196;6.838;2022-07-22T01:27:08;16.80;99.90
37702;DHT22;23548;51.196;6.838;2022-07-22T01:29:33;16.80;99.90
37702;DHT22;23548;51.196;6.838;2022-07-22T01:31:59;16.70;99.90
37702;DHT22;23548;51.196;6.838;2022-07-22T01:34:25;16.70;99.90
37702;DHT22;23548;51.196;6.838;2022-07-22T01:36:51;16.70;99.90
37702;DHT22;23548;51.196;6.838;2022-07-22T01:39:17;16.70;99.90
37702;DHT22;23548;51.196;6.838;2022-07-22T01:41:43;16.70;99.90
37702;DHT22;23548;51.196;6.838;2022-07-22T01:47:21;16.80;99.90
37702;DHT22;23548;51.196;6.838;2022-07-22T01:49:46;16.80;99.90
37702;DHT22;23548;51.196;6.838;2022-07-22T01:52:12;16.80;99.90
37702;DHT22;23548;51.196;6.838;2022-07-22T01:54:38;16.90;99.90
37702;DHT22;23548;51.196;6.838;2022-07-22T01:57:04;16.80;99.90
37702;DHT22;23548;51.196;6.838;2022-07-22T01:59:30;16.90;99.90
37702;DHT22;23548;51.196;6.838;2022-07-22T02:01:55;16.90;99.90
37702;DHT22;23548;51.196;6.838;2022-07-22T02:04:21;16.90;99.90
37702;DHT22;23548;51.196;6.838;2022-07-22T02:06:47;17.00;99.90
37702;DHT22;23548;51.196;6.838;2022-07-22T02:09:14;16.90;99.90
37702;DHT22;23548;51.196;6.838;2022-07-22T02:11:39;17.00;99.90
37702;DHT22;23548;51.196;6.838;2022-07-22T02:14:05;17.00;99.90
37702;DHT22;23548;51.196;6.838;2022-07-22T02:16:31;17.00;99.90
37702;DHT22;23548;51.196;6.838;2022-07-22T02:18:57;17.10;99.90
37702;DHT22;23548;51.196;6.838;2022-07-22T02:21:23;17.20;99.90
37702;DHT22;23548;51.196;6.838;2022-07-22T02:23:49;17.10;99.90
37702;DHT22;23548;51.196;6.838;2022-07-22T02:26:15;17.10;99.90
37702;DHT22;23548;51.196;6.838;2022-07-22T02:28:41;17.10;99.90
37702;DHT22;23548;51.196;6.838;2022-07-22T02:31:07;17.00;99.90
37702;DHT22;23548;51.196;6.838;2022-07-22T02:33:33;17.00;99.90
37702;DHT22;23548;51.196;6.838;2022-07-22T02:35:58;17.00;99.90
37702;DHT22;23548;51.196;6.838;2022-07-22T02:38:24;16.90;99.90
37702;DHT22;23548;51.196;6.838;2022-07-22T02:40:50;16.90;99.90
37702;DHT22;23548;51.196;6.838;2022-07-22T02:43:15;16.90;99.90
37702;DHT22;23548;51.196;6.838;2022-07-22T02:45:41;16.90;99.90
37702;DHT22;23548;51.196;6.838;2022-07-22T02:48:07;17.00;99.90
37702;DHT22;23548;51.196;6.838;2022-07-22T02:50:33;17.00;99.90
37702;DHT22;23548;51.196;6.838;2022-07-22T02:52:59;17.00;99.90
37702;DHT22;23548;51.196;6.838;2022-07-22T02:55:25;17.00;99.90
37702;DHT22;23548;51.196;6.838;2022-07-22T02:57:50;17.00;99.90
37702;DHT22;23548;51.196;6.838;2022-07-22T03:00:16;17.00;99.90
37702;DHT22;23548;51.196;6.838;2022-07-22T03:02:42;17.00;99.90
37702;DHT22;23548;51.196;6.838;2022-07-22T03:05:08;16.90;99.90
37702;DHT22;23548;51.196;6.838;2022-07-22T03:07:34;16.90;99.90
37702;DHT22;23548;51.196;6.838;2022-07-22T03:10:00;16.90;99.90
37702;DHT22;23548;51.196;6.838;2022-07-22T03:12:26;16.80;99.90
37702;DHT22;23548;51.196;6.838;2022-07-22T03:14:52;16.70;99.90
37702;DHT22;23548;51.196;6.838;2022-07-22T03:17:18;16.70;99.90
37702;DHT22;23548;51.196;6.838;2022-07-22T03:19:44;16.70;99.90
37702;DHT22;23548;51.196;6.838;2022-07-22T03:22:10;16.70;99.90
37702;DHT22;23548;51.196;6.838;2022-07-22T03:24:35;16.70;99.90
37702;DHT22;23548;51.196;6.838;2022-07-22T03:27:01;16.60;99.90
37702;DHT22;23548;51.196;6.838;2022-07-22T03:29:27;16.70;99.90
37702;DHT22;23548;51.196;6.838;2022-07-22T03:31:53;16.60;99.90
37702;DHT22;23548;51.196;6.838;2022-07-22T03:34:18;16.60;99.90
37702;DHT22;23548;51.196;6.838;2022-07-22T03:36:44;16.60;99.90
37702;DHT22;23548;51.196;6.838;2022-07-22T03:39:10;16.60;99.90
37702;DHT22;23548;51.196;6.838;2022-07-22T03:41:35;16.60;99.90
37702;DHT22;23548;51.196;6.838;2022-07-22T03:44:01;16.60;99.90
37702;DHT22;23548;51.196;6.838;2022-07-22T03:46:27;16.70;99.90
37702;DHT22;23548;51.196;6.838;2022-07-22T03:48:52;16.70;99.90
37702;DHT22;23548;51.196;6.838;2022-07-22T03:51:18;16.70;99.90
37702;DHT22;23548;51.196;6.838;2022-07-22T03:53:44;16.70;99.90
37702;DHT22;23548;51.196;6.838;2022-07-22T03:56:10;16.60;99.90
37702;DHT22;23548;51.196;6.838;2022-07-22T03:58:37;16.70;99.90
37702;DHT22;23548;51.196;6.838;2022-07-22T04:01:02;16.70;99.90
37702;DHT22;23548;51.196;6.838;2022-07-22T04:03:28;16.70;99.90
37702;DHT22;23548;51.196;6.838;2022-07-22T04:05:54;16.70;99.90
37702;DHT22;23548;51.196;6.838;2022-07-22T04:08:20;16.60;99.90
37702;DHT22;23548;51.196;6.838;2022-07-22T04:10:45;16.60;99.90
37702;DHT22;23548;51.196;6.838;2022-07-22T04:13:12;16.60;99.90
37702;DHT22;23548;51.196;6.838;2022-07-22T04:15:37;16.60;99.90
37702;DHT22;23548;51.196;6.838;2022-07-22T04:18:03;16.60;99.90
37702;DHT22;23548;51.196;6.838;2022-07-22T04:20:29;16.70;99.90
37702;DHT22;23548;51.196;6.838;2022-07-22T04:22:55;16.70;99.90
37702;DHT22;23548;51.196;6.838;2022-07-22T04:25:20;16.70;99.90
37702;DHT22;23548;51.196;6.838;2022-07-22T04:27:46;16.70;99.90
37702;DHT22;23548;51.196;6.838;2022-07-22T04:30:12;16.80;99.90
37702;DHT22;23548;51.196;6.838;2022-07-22T04:32:38;16.90;99.90
37702;DHT22;23548;51.196;6.838;2022-07-22T04:35:04;16.90;99.90
37702;DHT22;23548;51.196;6.838;2022-07-22T04:37:30;16.90;99.90
37702;DHT22;23548;51.196;6.838;2022-07-22T04:39:56;16.80;99.90
37702;DHT22;23548;51.196;6.838;2022-07-22T04:42:22;16.70;99.90
37702;DHT22;23548;51.196;6.838;2022-07-22T04:44:47;16.70;99.90
37702;DHT22;23548;51.196;6.838;2022-07-22T04:47:13;16.70;99.90
37702;DHT22;23548;51.196;6.838;2022-07-22T04:49:39;16.70;99.90
37702;DHT22;23548;51.196;6.838;2022-07-22T04:52:05;16.80;99.90
37702;DHT22;23548;51.196;6.838;2022-07-22T04:54:31;16.70;99.90
37702;DHT22;23548;51.196;6.838;2022-07-22T04:56:57;16.60;99.90
37702;DHT22;23548;51.196;6.838;2022-07-22T04:59:22;16.70;99.90
37702;DHT22;23548;51.196;6.838;2022-07-22T05:01:48;16.90;99.90
37702;DHT22;23548;51.196;6.838;2022-07-22T05:04:14;17.00;99.90
37702;DHT22;23548;51.196;6.838;2022-07-22T05:06:40;17.00;99.90
37702;DHT22;23548;51.196;6.838;2022-07-22T05:09:06;17.00;99.90
37702;DHT22;23548;51.196;6.838;2022-07-22T05:11:31;17.10;99.90
37702;DHT22;23548;51.196;6.838;2022-07-22T05:13:57;17.10;99.90
37702;DHT22;23548;51.196;6.838;2022-07-22T05:16:23;17.10;99.90
37702;DHT22;23548;51.196;6.838;2022-07-22T05:18:49;17.30;99.90
37702;DHT22;23548;51.196;6.838;2022-07-22T05:21:14;17.20;99.90
37702;DHT22;23548;51.196;6.838;2022-07-22T05:23:40;17.30;99.90
37702;DHT22;23548;51.196;6.838;2022-07-22T05:26:06;17.30;99.90
37702;DHT22;23548;51.196;6.838;2022-07-22T05:28:32;17.30;99.90
37702;DHT22;23548;51.196;6.838;2022-07-22T05:30:58;17.40;99.90
37702;DHT22;23548;51.196;6.838;2022-07-22T05:33:24;17.40;99.90
37702;DHT22;23548;51.196;6.838;2022-07-22T05:35:50;17.50;99.90
37702;DHT22;23548;51.196;6.838;2022-07-22T05:38:15;17.50;99.90
37702;DHT22;23548;51.196;6.838;2022-07-22T05:40:41;17.60;99.90
37702;DHT22;23548;51.196;6.838;2022-07-22T05:43:07;17.70;99.90
37702;DHT22;23548;51.196;6.838;2022-07-22T05:45:33;17.60;99.90
37702;DHT22;23548;51.196;6.838;2022-07-22T05:47:59;17.50;99.90
37702;DHT22;23548;51.196;6.838;2022-07-22T05:50:26;17.70;99.90
37702;DHT22;23548;51.196;6.838;2022-07-22T05:52:52;17.80;99.90
37702;DHT22;23548;51.196;6.838;2022-07-22T05:55:18;17.80;99.90
37702;DHT22;23548;51.196;6.838;2022-07-22T05:57:43;17.90;99.90
37702;DHT22;23548;51.196;6.838;2022-07-22T06:00:10;17.90;99.90
37702;DHT22;23548;51.196;6.838;2022-07-22T06:02:35;17.70;99.90
37702;DHT22;23548;51.196;6.838;2022-07-22T06:05:02;17.50;99.90
37702;DHT22;23548;51.196;6.838;2022-07-22T06:07:28;17.40;99.90
37702;DHT22;23548;51.196;6.838;2022-07-22T06:09:54;17.50;99.90
37702;DHT22;23548;51.196;6.838;2022-07-22T06:12:19;17.50;99.90
37702;DHT22;23548;51.196;6.838;2022-07-22T06:14:45;17.50;99.90
37702;DHT22;23548;51.196;6.838;2022-07-22T06:17:12;17.40;99.90
37702;DHT22;23548;51.196;6.838;2022-07-22T06:19:38;17.50;99.90
37702;DHT22;23548;51.196;6.838;2022-07-22T06:22:04;17.50;99.90
37702;DHT22;23548;51.196;6.838;2022-07-22T06:24:30;17.80;99.90
37702;DHT22;23548;51.196;6.838;2022-07-22T06:26:55;18.00;99.90
37702;DHT22;23548;51.196;6.838;2022-07-22T06:29:21;17.80;99.90
37702;DHT22;23548;51.196;6.838;2022-07-22T06:31:47;17.70;99.90
37702;DHT22;23548;51.196;6.838;2022-07-22T06:34:13;17.70;99.90
37702;DHT22;23548;51.196;6.838;2022-07-22T06:36:39;18.10;99.90
37702;DHT22;23548;51.196;6.838;2022-07-22T06:39:05;18.50;99.90
37702;DHT22;23548;51.196;6.838;2022-07-22T06:41:30;18.40;99.90
37702;DHT22;23548;51.196;6.838;2022-07-22T06:43:56;18.30;99.90
37702;DHT22;23548;51.196;6.838;2022-07-22T06:46:22;18.40;99.90
37702;DHT22;23548;51.196;6.838;2022-07-22T06:48:47;18.70;99.90
37702;DHT22;23548;51.196;6.838;2022-07-22T06:51:13;19.00;99.90
37702;DHT22;23548;51.196;6.838;2022-07-22T06:53:40;19.30;99.90
37702;DHT22;23548;51.196;6.838;2022-07-22T06:56:06;19.30;99.90
37702;DHT22;23548;51.196;6.838;2022-07-22T06:58:32;19.30;99.90
37702;DHT22;23548;51.196;6.838;2022-07-22T07:00:58;19.20;99.90
37702;DHT22;23548;51.196;6.838;2022-07-22T07:03:24;19.00;99.90
37702;DHT22;23548;51.196;6.838;2022-07-22T07:05:51;18.90;99.90
37702;DHT22;23548;51.196;6.838;2022-07-22T07:08:17;18.90;99.90
37702;DHT22;23548;51.196;6.838;2022-07-22T07:10:43;18.80;99.90
37702;DHT22;23548;51.196;6.838;2022-07-22T07:13:09;18.80;99.90
37702;DHT22;23548;51.196;6.838;2022-07-22T07:15:35;18.80;99.90
37702;DHT22;23548;51.196;6.838;2022-07-22T07:18:03;18.90;99.90
37702;DHT22;23548;51.196;6.838;2022-07-22T07:20:29;19.00;99.90
37702;DHT22;23548;51.196;6.838;2022-07-22T07:22:55;19.20;99.90
37702;DHT22;23548;51.196;6.838;2022-07-22T07:25:21;19.30;99.90
37702;DHT22;23548;51.196;6.838;2022-07-22T07:27:47;19.30;99.90
37702;DHT22;23548;51.196;6.838;2022-07-22T07:30:13;19.30;99.90
37702;DHT22;23548;51.196;6.838;2022-07-22T07:32:39;19.20;99.90
37702;DHT22;23548;51.196;6.838;2022-07-22T07:35:06;19.30;99.90
37702;DHT22;23548;51.196;6.838;2022-07-22T07:37:32;19.20;99.90
37702;DHT22;23548;51.196;6.838;2022-07-22T07:39:59;19.30;99.90
37702;DHT22;23548;51.196;6.838;2022-07-22T07:42:25;19.30;99.90
37702;DHT22;23548;51.196;6.838;2022-07-22T07:44:51;19.40;99.90
37702;DHT22;23548;51.196;6.838;2022-07-22T07:47:17;19.30;99.90
37702;DHT22;23548;51.196;6.838;2022-07-22T07:49:46;19.30;99.90
37702;DHT22;23548;51.196;6.838;2022-07-22T07:52:12;19.50;99.90
37702;DHT22;23548;51.196;6.838;2022-07-22T07:54:39;19.70;99.90
37702;DHT22;23548;51.196;6.838;2022-07-22T07:57:07;19.60;99.90
37702;DHT22;23548;51.196;6.838;2022-07-22T07:59:32;19.90;99.90
37702;DHT22;23548;51.196;6.838;2022-07-22T08:01:58;20.10;99.90
37702;DHT22;23548;51.196;6.838;2022-07-22T08:04:25;20.00;99.90
37702;DHT22;23548;51.196;6.838;2022-07-22T08:06:50;19.90;99.90
37702;DHT22;23548;51.196;6.838;2022-07-22T08:09:16;19.40;99.90
37702;DHT22;23548;51.196;6.838;2022-07-22T08:11:42;19.70;99.90
37702;DHT22;23548;51.196;6.838;2022-07-22T08:14:08;19.80;99.90
37702;DHT22;23548;51.196;6.838;2022-07-22T08:16:34;19.60;99.90
37702;DHT22;23548;51.196;6.838;2022-07-22T08:19:00;19.20;99.90
37702;DHT22;23548;51.196;6.838;2022-07-22T08:21:25;19.60;99.90
37702;DHT22;23548;51.196;6.838;2022-07-22T08:23:51;19.80;99.90
37702;DHT22;23548;51.196;6.838;2022-07-22T08:26:18;19.90;99.90
37702;DHT22;23548;51.196;6.838;2022-07-22T08:28:44;20.10;99.90
37702;DHT22;23548;51.196;6.838;2022-07-22T08:31:10;20.50;99.90
37702;DHT22;23548;51.196;6.838;2022-07-22T08:33:35;20.90;99.90
37702;DHT22;23548;51.196;6.838;2022-07-22T08:36:01;20.80;99.90
37702;DHT22;23548;51.196;6.838;2022-07-22T08:38:27;20.80;99.90
37702;DHT22;23548;51.196;6.838;2022-07-22T08:40:55;20.60;99.90
37702;DHT22;23548;51.196;6.838;2022-07-22T08:43:22;20.70;99.90
37702;DHT22;23548;51.196;6.838;2022-07-22T08:45:48;20.60;99.90
37702;DHT22;23548;51.196;6.838;2022-07-22T08:48:15;20.40;99.90
37702;DHT22;23548;51.196;6.838;2022-07-22T08:50:42;20.30;99.90
37702;DHT22;23548;51.196;6.838;2022-07-22T08:53:11;20.60;99.90
37702;DHT22;23548;51.196;6.838;2022-07-22T08:55:45;20.30;99.90
37702;DHT22;23548;51.196;6.838;2022-07-22T08:58:12;20.50;99.90
37702;DHT22;23548;51.196;6.838;2022-07-22T09:00:38;20.70;99.90
37702;DHT22;23548;51.196;6.838;2022-07-22T09:03:24;20.70;99.90
37702;DHT22;23548;51.196;6.838;2022-07-22T09:05:53;20.70;99.90
37702;DHT22;23548;51.196;6.838;2022-07-22T09:08:20;20.30;99.90
37702;DHT22;23548;51.196;6.838;2022-07-22T09:10:46;19.80;99.90
37702;DHT22;23548;51.196;6.838;2022-07-22T09:13:15;19.90;99.90
37702;DHT22;23548;51.196;6.838;2022-07-22T09:15:49;19.90;99.90
37702;DHT22;23548;51.196;6.838;2022-07-22T09:18:15;20.10;99.90
37702;DHT22;23548;51.196;6.838;2022-07-22T09:20:41;20.50;99.90
37702;DHT22;23548;51.196;6.838;2022-07-22T09:23:19;20.60;99.90
37702;DHT22;23548;51.196;6.838;2022-07-22T09:25:50;20.50;99.90
37702;DHT22;23548;51.196;6.838;2022-07-22T09:28:18;20.70;99.90
37702;DHT22;23548;51.196;6.838;2022-07-22T09:30:50;20.70;99.90
37702;DHT22;23548;51.196;6.838;2022-07-22T09:33:17;20.90;99.90
37702;DHT22;23548;51.196;6.838;2022-07-22T09:35:43;20.60;99.90
37702;DHT22;23548;51.196;6.838;2022-07-22T09:38:11;20.70;99.90
37702;DHT22;23548;51.196;6.838;2022-07-22T09:40:47;20.80;99.90
37702;DHT22;23548;51.196;6.838;2022-07-22T09:43:18;21.00;99.90
37702;DHT22;23548;51.196;6.838;2022-07-22T09:45:52;21.00;99.90
37702;DHT22;23548;51.196;6.838;2022-07-22T09:48:25;21.30;99.90
37702;DHT22;23548;51.196;6.838;2022-07-22T09:50:53;21.20;99.90
37702;DHT22;23548;51.196;6.838;2022-07-22T09:53:21;21.10;99.90
37702;DHT22;23548;51.196;6.838;2022-07-22T09:55:47;21.50;99.90
37702;DHT22;23548;51.196;6.838;2022-07-22T09:58:13;21.90;99.90
37702;DHT22;23548;51.196;6.838;2022-07-22T10:00:40;22.10;99.90
37702;DHT22;23548;51.196;6.838;2022-07-22T10:03:10;22.10;99.90
37702;DHT22;23548;51.196;6.838;2022-07-22T10:05:41;22.50;99.90
37702;DHT22;23548;51.196;6.838;2022-07-22T10:08:08;23.30;99.90
37702;DHT22;23548;51.196;6.838;2022-07-22T10:10:36;22.80;99.90
37702;DHT22;23548;51.196;6.838;2022-07-22T10:13:05;22.60;99.90
37702;DHT22;23548;51.196;6.838;2022-07-22T10:15:32;22.30;99.90
37702;DHT22;23548;51.196;6.838;2022-07-22T10:18:00;21.80;99.90
37702;DHT22;23548;51.196;6.838;2022-07-22T10:20:28;21.90;99.90
37702;DHT22;23548;51.196;6.838;2022-07-22T10:23:00;22.90;99.90
37702;DHT22;23548;51.196;6.838;2022-07-22T10:25:29;22.50;99.90
37702;DHT22;23548;51.196;6.838;2022-07-22T10:28:03;23.00;99.90
37702;DHT22;23548;51.196;6.838;2022-07-22T10:30:37;23.50;99.90
37702;DHT22;23548;51.196;6.838;2022-07-22T10:33:16;24.00;99.90
37702;DHT22;23548;51.196;6.838;2022-07-22T10:35:59;24.50;99.90
37702;DHT22;23548;51.196;6.838;2022-07-22T10:38:27;23.80;99.90
37702;DHT22;23548;51.196;6.838;2022-07-22T10:40:58;24.20;99.90
37702;DHT22;23548;51.196;6.838;2022-07-22T10:43:32;24.40;99.90
37702;DHT22;23548;51.196;6.838;2022-07-22T10:46:11;24.20;99.90
37702;DHT22;23548;51.196;6.838;2022-07-22T10:54:02;23.80;99.90
37702;DHT22;23548;51.196;6.838;2022-07-22T10:56:28;23.80;99.90
37702;DHT22;23548;51.196;6.838;2022-07-22T10:59:15;23.40;99.90
37702;DHT22;23548;51.196;6.838;2022-07-22T11:01:47;22.60;99.90
37702;DHT22;23548;51.196;6.838;2022-07-22T11:04:22;22.90;99.90
37702;DHT22;23548;51.196;6.838;2022-07-22T11:06:50;22.60;99.90
37702;DHT22;23548;51.196;6.838;2022-07-22T11:09:19;23.60;99.90
37702;DHT22;23548;51.196;6.838;2022-07-22T11:14:13;23.50;99.90
37702;DHT22;23548;51.196;6.838;2022-07-22T11:16:39;23.90;99.90
37702;DHT22;23548;51.196;6.838;2022-07-22T11:19:05;24.10;99.90
37702;DHT22;23548;51.196;6.838;2022-07-22T11:21:32;24.60;99.90
37702;DHT22;23548;51.196;6.838;2022-07-22T11:24:01;24.60;99.90
37702;DHT22;23548;51.196;6.838;2022-07-22T11:26:44;24.20;99.90
37702;DHT22;23548;51.196;6.838;2022-07-22T11:29:16;24.60;99.90
37702;DHT22;23548;51.196;6.838;2022-07-22T11:31:42;24.80;99.90
37702;DHT22;23548;51.196;6.838;2022-07-22T11:34:11;25.00;99.90
37702;DHT22;23548;51.196;6.838;2022-07-22T11:36:42;25.10;99.90
37702;DHT22;23548;51.196;6.838;2022-07-22T11:39:09;25.30;99.90
37702;DHT22;23548;51.196;6.838;2022-07-22T11:41:36;24.50;99.90
37702;DHT22;23548;51.196;6.838;2022-07-22T11:44:03;24.00;99.90
37702;DHT22;23548;51.196;6.838;2022-07-22T11:46:43;24.30;99.90
37702;DHT22;23548;51.196;6.838;2022-07-22T11:49:12;24.30;99.90
37702;DHT22;23548;51.196;6.838;2022-07-22T11:51:38;23.90;99.90
37702;DHT22;23548;51.196;6.838;2022-07-22T11:54:05;23.80;99.90
37702;DHT22;23548;51.196;6.838;2022-07-22T11:56:31;24.10;99.90
37702;DHT22;23548;51.196;6.838;2022-07-22T11:58:58;25.20;99.90
37702;DHT22;23548;51.196;6.838;2022-07-22T12:01:28;25.60;99.90
37702;DHT22;23548;51.196;6.838;2022-07-22T12:04:06;24.80;99.90
37702;DHT22;23548;51.196;6.838;2022-07-22T12:06:35;25.00;99.90
37702;DHT22;23548;51.196;6.838;2022-07-22T12:09:36;24.90;99.90
37702;DHT22;23548;51.196;6.838;2022-07-22T12:12:04;25.00;99.90
37702;DHT22;23548;51.196;6.838;2022-07-22T12:14:33;26.40;99.90
37702;DHT22;23548;51.196;6.838;2022-07-22T12:19:31;27.00;98.80
37702;DHT22;23548;51.196;6.838;2022-07-22T12:22:01;27.10;97.70
37702;DHT22;23548;51.196;6.838;2022-07-22T12:24:31;26.60;97.60
37702;DHT22;23548;51.196;6.838;2022-07-22T12:27:06;25.50;99.30
37702;DHT22;23548;51.196;6.838;2022-07-22T12:34:38;26.60;97.20
37702;DHT22;23548;51.196;6.838;2022-07-22T12:40:06;25.60;97.80
37702;DHT22;23548;51.196;6.838;2022-07-22T12:42:38;25.60;98.00
37702;DHT22;23548;51.196;6.838;2022-07-22T12:45:09;25.10;98.20
37702;DHT22;23548;51.196;6.838;2022-07-22T12:47:51;24.90;99.00
37702;DHT22;23548;51.196;6.838;2022-07-22T12:50:30;25.60;98.20
37702;DHT22;23548;51.196;6.838;2022-07-22T12:55:24;25.00;99.00
37702;DHT22;23548;51.196;6.838;2022-07-22T12:57:50;26.20;97.30
37702;DHT22;23548;51.196;6.838;2022-07-22T13:00:29;26.50;97.00
37702;DHT22;23548;51.196;6.838;2022-07-22T13:02:56;26.40;96.30
37702;DHT22;23548;51.196;6.838;2022-07-22T13:05:24;26.00;97.20
37702;DHT22;23548;51.196;6.838;2022-07-22T13:07:50;26.20;96.90
37702;DHT22;23548;51.196;6.838;2022-07-22T13:10:19;26.00;97.50
37702;DHT22;23548;51.196;6.838;2022-07-22T13:12:45;26.20;97.40
37702;DHT22;23548;51.196;6.838;2022-07-22T13:15:12;26.80;96.80
37702;DHT22;23548;51.196;6.838;2022-07-22T13:17:39;26.90;95.90
37702;DHT22;23548;51.196;6.838;2022-07-22T13:20:05;27.50;95.00
37702;DHT22;23548;51.196;6.838;2022-07-22T13:22:31;27.70;94.20
37702;DHT22;23548;51.196;6.838;2022-07-22T13:24:58;28.00;93.50
37702;DHT22;23548;51.196;6.838;2022-07-22T13:27:24;28.40;92.30
37702;DHT22;23548;51.196;6.838;2022-07-22T13:29:50;28.00;91.70
37702;DHT22;23548;51.196;6.838;2022-07-22T13:32:16;27.70;92.40
37702;DHT22;23548;51.196;6.838;2022-07-22T13:34:41;27.70;92.20
37702;DHT22;23548;51.196;6.838;2022-07-22T13:37:07;27.80;92.80
37702;DHT22;23548;51.196;6.838;2022-07-22T13:39:33;28.10;91.90
37702;DHT22;23548;51.196;6.838;2022-07-22T13:41:59;29.20;90.00
37702;DHT22;23548;51.196;6.838;2022-07-22T13:44:24;29.70;89.60
37702;DHT22;23548;51.196;6.838;2022-07-22T13:46:50;31.00;84.90
37702;DHT22;23548;51.196;6.838;2022-07-22T13:49:16;29.20;84.70
37702;DHT22;23548;51.196;6.838;2022-07-22T13:51:42;30.80;83.50
37702;DHT22;23548;51.196;6.838;2022-07-22T13:54:07;31.20;78.50
37702;DHT22;23548;51.196;6.838;2022-07-22T13:56:34;31.80;78.10
37702;DHT22;23548;51.196;6.838;2022-07-22T13:59:00;30.30;79.30
37702;DHT22;23548;51.196;6.838;2022-07-22T14:01:26;29.80;82.20
37702;DHT22;23548;51.196;6.838;2022-07-22T14:03:52;29.50;81.70
37702;DHT22;23548;51.196;6.838;2022-07-22T14:06:18;30.60;81.20
37702;DHT22;23548;51.196;6.838;2022-07-22T14:08:45;30.00;80.90
37702;DHT22;23548;51.196;6.838;2022-07-22T14:11:10;29.20;83.10
37702;DHT22;23548;51.196;6.838;2022-07-22T14:13:36;28.90;82.80
37702;DHT22;23548;51.196;6.838;2022-07-22T14:16:02;31.20;80.40
37702;DHT22;23548;51.196;6.838;2022-07-22T14:18:47;32.60;76.40
37702;DHT22;23548;51.196;6.838;2022-07-22T14:21:14;32.00;74.20
37702;DHT22;23548;51.196;6.838;2022-07-22T14:23:39;31.10;77.10
37702;DHT22;23548;51.196;6.838;2022-07-22T14:26:05;32.00;74.00
37702;DHT22;23548;51.196;6.838;2022-07-22T14:28:31;29.80;76.50
37702;DHT22;23548;51.196;6.838;2022-07-22T14:30:57;29.90;76.10
37702;DHT22;23548;51.196;6.838;2022-07-22T14:33:23;29.80;78.90
37702;DHT22;23548;51.196;6.838;2022-07-22T14:35:49;30.70;76.30
37702;DHT22;23548;51.196;6.838;2022-07-22T14:38:15;30.00;77.20
37702;DHT22;23548;51.196;6.838;2022-07-22T14:40:41;30.30;77.10
37702;DHT22;23548;51.196;6.838;2022-07-22T14:43:07;32.00;70.20
37702;DHT22;23548;51.196;6.838;2022-07-22T14:45:32;33.70;68.00
37702;DHT22;23548;51.196;6.838;2022-07-22T14:47:58;31.30;70.30
37702;DHT22;23548;51.196;6.838;2022-07-22T14:50:24;31.50;70.00
37702;DHT22;23548;51.196;6.838;2022-07-22T14:52:49;31.30;70.40
37702;DHT22;23548;51.196;6.838;2022-07-22T14:55:15;31.00;70.40
37702;DHT22;23548;51.196;6.838;2022-07-22T14:57:41;31.80;68.60
37702;DHT22;23548;51.196;6.838;2022-07-22T15:00:07;31.90;67.80
37702;DHT22;23548;51.196;6.838;2022-07-22T15:02:33;30.80;70.10
37702;DHT22;23548;51.196;6.838;2022-07-22T15:04:59;30.20;72.00
37702;DHT22;23548;51.196;6.838;2022-07-22T15:07:25;29.80;72.80
37702;DHT22;23548;51.196;6.838;2022-07-22T15:09:51;27.80;77.30
37702;DHT22;23548;51.196;6.838;2022-07-22T15:12:16;27.20;79.10
37702;DHT22;23548;51.196;6.838;2022-07-22T15:14:42;27.90;79.50
37702;DHT22;23548;51.196;6.838;2022-07-22T15:17:08;27.60;80.40
37702;DHT22;23548;51.196;6.838;2022-07-22T15:19:34;29.30;76.40
37702;DHT22;23548;51.196;6.838;2022-07-22T15:22:00;29.50;74.60
37702;DHT22;23548;51.196;6.838;2022-07-22T15:24:26;28.80;75.30
37702;DHT22;23548;51.196;6.838;2022-07-22T15:26:52;28.00;77.80
37702;DHT22;23548;51.196;6.838;2022-07-22T15:29:18;27.90;77.30
37702;DHT22;23548;51.196;6.838;2022-07-22T15:31:44;27.60;78.80
37702;DHT22;23548;51.196;6.838;2022-07-22T15:34:09;27.20;79.40
37702;DHT22;23548;51.196;6.838;2022-07-22T15:36:35;27.10;79.80
37702;DHT22;23548;51.196;6.838;2022-07-22T15:39:01;27.40;79.80
37702;DHT22;23548;51.196;6.838;2022-07-22T15:41:27;27.70;78.80
37702;DHT22;23548;51.196;6.838;2022-07-22T15:43:54;27.50;80.30
37702;DHT22;23548;51.196;6.838;2022-07-22T15:46:20;28.00;80.10
37702;DHT22;23548;51.196;6.838;2022-07-22T15:48:46;28.30;79.20
37702;DHT22;23548;51.196;6.838;2022-07-22T15:51:12;28.80;78.50
37702;DHT22;23548;51.196;6.838;2022-07-22T15:53:38;29.60;76.30